sensor_id;sensor_type;location;lat;lon;timestamp;P1;durP1;ratioP1;P2;durP2;ratioP2
48975;SDS011;34791;52.752;8.346;2023-04-21T00:00:07;29.27;;;13.07;;
48975;SDS011;34791;52.752;8.346;2023-04-21T00:02:34;19.97;;;10.80;;
48975;SDS011;34791;52.752;8.346;2023-04-21T00:05:03;26.60;;;15.10;;
48975;SDS011;34791;52.752;8.346;2023-04-21T00:07:29;24.67;;;13.97;;
48975;SDS011;34791;52.752;8.346;2023-04-21T00:09:54;23.50;;;11.13;;
48975;SDS011;34791;52.752;8.346;2023-04-21T00:12:19;22.70;;;8.90;;
48975;SDS011;34791;52.752;8.346;2023-04-21T00:14:45;22.77;;;11.50;;
48975;SDS011;34791;52.752;8.346;2023-04-21T00:17:10;14.83;;;7.57;;
48975;SDS011;34791;52.752;8.346;2023-04-21T00:19:35;19.83;;;10.20;;
48975;SDS011;34791;52.752;8.346;2023-04-21T00:22:01;15.33;;;7.00;;
48975;SDS011;34791;52.752;8.346;2023-04-21T00:24:28;14.53;;;7.27;;
48975;SDS011;34791;52.752;8.346;2023-04-21T00:26:53;21.87;;;8.57;;
48975;SDS011;34791;52.752;8.346;2023-04-21T00:29:18;16.43;;;7.87;;
48975;SDS011;34791;52.752;8.346;2023-04-21T00:31:44;16.63;;;10.50;;
48975;SDS011;34791;52.752;8.346;2023-04-21T00:34:09;18.53;;;10.53;;
48975;SDS011;34791;52.752;8.346;2023-04-21T00:36:34;18.37;;;10.57;;
48975;SDS011;34791;52.752;8.346;2023-04-21T00:39:00;22.30;;;11.27;;
48975;SDS011;34791;52.752;8.346;2023-04-21T00:41:26;17.63;;;9.13;;
48975;SDS011;34791;52.752;8.346;2023-04-21T00:43:59;17.30;;;10.77;;
48975;SDS011;34791;52.752;8.346;2023-04-21T00:46:24;16.23;;;8.90;;
48975;SDS011;34791;52.752;8.346;2023-04-21T00:48:49;15.70;;;6.70;;
48975;SDS011;34791;52.752;8.346;2023-04-21T00:51:15;16.90;;;8.03;;
48975;SDS011;34791;52.752;8.346;2023-04-21T00:53:40;13.67;;;7.33;;
48975;SDS011;34791;52.752;8.346;2023-04-21T00:56:05;15.33;;;7.83;;
48975;SDS011;34791;52.752;8.346;2023-04-21T00:58:31;23.33;;;10.90;;
48975;SDS011;34791;52.752;8.346;2023-04-21T01:04:01;11.50;;;6.17;;
48975;SDS011;34791;52.752;8.346;2023-04-21T01:06:28;18.03;;;9.50;;
48975;SDS011;34791;52.752;8.346;2023-04-21T01:08:54;14.20;;;7.27;;
48975;SDS011;34791;52.752;8.346;2023-04-21T01:11:19;15.07;;;6.77;;
48975;SDS011;34791;52.752;8.346;2023-04-21T01:13:45;15.40;;;9.10;;
48975;SDS011;34791;52.752;8.346;2023-04-21T01:16:14;11.70;;;7.10;;
48975;SDS011;34791;52.752;8.346;2023-04-21T01:18:40;14.23;;;6.60;;
48975;SDS011;34791;52.752;8.346;2023-04-21T01:21:05;18.87;;;10.37;;
48975;SDS011;34791;52.752;8.346;2023-04-21T01:23:31;15.07;;;8.87;;
48975;SDS011;34791;52.752;8.346;2023-04-21T01:25:56;15.33;;;6.93;;
48975;SDS011;34791;52.752;8.346;2023-04-21T01:28:22;11.03;;;5.23;;
48975;SDS011;34791;52.752;8.346;2023-04-21T01:30:47;14.13;;;6.00;;
48975;SDS011;34791;52.752;8.346;2023-04-21T01:33:13;15.60;;;7.87;;
48975;SDS011;34791;52.752;8.346;2023-04-21T01:35:38;19.37;;;10.70;;
48975;SDS011;34791;52.752;8.346;2023-04-21T01:38:04;12.53;;;7.13;;
48975;SDS011;34791;52.752;8.346;2023-04-21T01:40:29;16.70;;;9.57;;
48975;SDS011;34791;52.752;8.346;2023-04-21T01:42:55;19.27;;;6.23;;
48975;SDS011;34791;52.752;8.346;2023-04-21T01:45:20;14.07;;;7.87;;
48975;SDS011;34791;52.752;8.346;2023-04-21T01:47:45;16.10;;;8.43;;
48975;SDS011;34791;52.752;8.346;2023-04-21T01:50:11;12.83;;;7.20;;
48975;SDS011;34791;52.752;8.346;2023-04-21T01:52:36;18.57;;;9.40;;
48975;SDS011;34791;52.752;8.346;2023-04-21T01:55:01;12.37;;;6.17;;
48975;SDS011;34791;52.752;8.346;2023-04-21T01:57:27;15.90;;;8.90;;
48975;SDS011;34791;52.752;8.346;2023-04-21T01:59:52;11.90;;;5.73;;
48975;SDS011;34791;52.752;8.346;2023-04-21T02:02:17;14.00;;;5.97;;
48975;SDS011;34791;52.752;8.346;2023-04-21T02:04:43;13.20;;;6.63;;
48975;SDS011;34791;52.752;8.346;2023-04-21T02:07:08;13.93;;;7.63;;
48975;SDS011;34791;52.752;8.346;2023-04-21T02:09:33;9.87;;;6.27;;
48975;SDS011;34791;52.752;8.346;2023-04-21T02:11:59;13.60;;;6.47;;
48975;SDS011;34791;52.752;8.346;2023-04-21T02:14:26;13.17;;;7.03;;
48975;SDS011;34791;52.752;8.346;2023-04-21T02:16:51;15.53;;;8.20;;
48975;SDS011;34791;52.752;8.346;2023-04-21T02:19:16;16.03;;;8.10;;
48975;SDS011;34791;52.752;8.346;2023-04-21T02:21:42;16.40;;;9.40;;
48975;SDS011;34791;52.752;8.346;2023-04-21T02:24:07;12.17;;;6.47;;
48975;SDS011;34791;52.752;8.346;2023-04-21T02:26:32;13.37;;;6.13;;
48975;SDS011;34791;52.752;8.346;2023-04-21T02:28:57;19.67;;;9.97;;
48975;SDS011;34791;52.752;8.346;2023-04-21T02:31:23;14.77;;;7.60;;
48975;SDS011;34791;52.752;8.346;2023-04-21T02:33:48;17.33;;;9.10;;
48975;SDS011;34791;52.752;8.346;2023-04-21T02:36:13;19.23;;;8.87;;
48975;SDS011;34791;52.752;8.346;2023-04-21T02:38:39;13.47;;;6.80;;
48975;SDS011;34791;52.752;8.346;2023-04-21T02:41:04;15.57;;;8.30;;
48975;SDS011;34791;52.752;8.346;2023-04-21T02:43:30;16.27;;;9.93;;
48975;SDS011;34791;52.752;8.346;2023-04-21T02:45:55;15.33;;;5.70;;
48975;SDS011;34791;52.752;8.346;2023-04-21T02:48:20;10.47;;;6.03;;
48975;SDS011;34791;52.752;8.346;2023-04-21T02:50:49;17.07;;;7.83;;
48975;SDS011;34791;52.752;8.346;2023-04-21T02:53:14;14.60;;;7.20;;
48975;SDS011;34791;52.752;8.346;2023-04-21T02:55:40;14.77;;;9.17;;
48975;SDS011;34791;52.752;8.346;2023-04-21T02:58:06;16.37;;;9.93;;
48975;SDS011;34791;52.752;8.346;2023-04-21T03:00:31;20.30;;;10.03;;
48975;SDS011;34791;52.752;8.346;2023-04-21T03:02:56;10.87;;;6.00;;
48975;SDS011;34791;52.752;8.346;2023-04-21T03:05:21;17.50;;;8.90;;
48975;SDS011;34791;52.752;8.346;2023-04-21T03:07:47;15.87;;;9.87;;
48975;SDS011;34791;52.752;8.346;2023-04-21T03:10:12;20.53;;;10.80;;
48975;SDS011;34791;52.752;8.346;2023-04-21T03:12:37;19.30;;;10.60;;
48975;SDS011;34791;52.752;8.346;2023-04-21T03:15:03;17.43;;;8.43;;
48975;SDS011;34791;52.752;8.346;2023-04-21T03:17:28;18.30;;;10.60;;
48975;SDS011;34791;52.752;8.346;2023-04-21T03:19:53;21.00;;;10.70;;
48975;SDS011;34791;52.752;8.346;2023-04-21T03:22:19;19.17;;;11.00;;
48975;SDS011;34791;52.752;8.346;2023-04-21T03:24:44;18.30;;;10.27;;
48975;SDS011;34791;52.752;8.346;2023-04-21T03:27:10;19.17;;;8.67;;
48975;SDS011;34791;52.752;8.346;2023-04-21T03:29:35;11.73;;;5.10;;
48975;SDS011;34791;52.752;8.346;2023-04-21T03:32:00;19.03;;;10.70;;
48975;SDS011;34791;52.752;8.346;2023-04-21T03:34:26;21.63;;;10.97;;
48975;SDS011;34791;52.752;8.346;2023-04-21T03:36:51;16.63;;;10.50;;
48975;SDS011;34791;52.752;8.346;2023-04-21T03:39:17;17.53;;;9.77;;
48975;SDS011;34791;52.752;8.346;2023-04-21T03:41:42;14.17;;;7.90;;
48975;SDS011;34791;52.752;8.346;2023-04-21T03:44:07;16.67;;;10.13;;
48975;SDS011;34791;52.752;8.346;2023-04-21T03:46:33;15.93;;;9.47;;
48975;SDS011;34791;52.752;8.346;2023-04-21T03:48:58;18.33;;;10.83;;
48975;SDS011;34791;52.752;8.346;2023-04-21T03:51:23;17.90;;;10.60;;
48975;SDS011;34791;52.752;8.346;2023-04-21T03:53:49;19.57;;;9.10;;
48975;SDS011;34791;52.752;8.346;2023-04-21T03:56:14;18.50;;;10.00;;
48975;SDS011;34791;52.752;8.346;2023-04-21T03:58:40;17.70;;;7.93;;
48975;SDS011;34791;52.752;8.346;2023-04-21T04:01:05;20.43;;;10.07;;
48975;SDS011;34791;52.752;8.346;2023-04-21T04:03:31;17.57;;;9.47;;
48975;SDS011;34791;52.752;8.346;2023-04-21T04:05:57;14.53;;;8.60;;
48975;SDS011;34791;52.752;8.346;2023-04-21T04:08:22;14.60;;;7.73;;
48975;SDS011;34791;52.752;8.346;2023-04-21T04:10:48;20.97;;;10.50;;
48975;SDS011;34791;52.752;8.346;2023-04-21T04:13:13;20.67;;;9.20;;
48975;SDS011;34791;52.752;8.346;2023-04-21T04:15:38;16.27;;;7.90;;
48975;SDS011;34791;52.752;8.346;2023-04-21T04:18:04;18.40;;;9.67;;
48975;SDS011;34791;52.752;8.346;2023-04-21T04:20:30;18.73;;;9.67;;
48975;SDS011;34791;52.752;8.346;2023-04-21T04:22:55;12.93;;;7.27;;
48975;SDS011;34791;52.752;8.346;2023-04-21T04:25:21;12.33;;;6.43;;
48975;SDS011;34791;52.752;8.346;2023-04-21T04:27:46;12.70;;;6.87;;
48975;SDS011;34791;52.752;8.346;2023-04-21T04:30:14;19.40;;;10.13;;
48975;SDS011;34791;52.752;8.346;2023-04-21T04:32:40;19.80;;;9.57;;
48975;SDS011;34791;52.752;8.346;2023-04-21T04:35:05;18.20;;;8.63;;
48975;SDS011;34791;52.752;8.346;2023-04-21T04:37:31;15.00;;;8.40;;
48975;SDS011;34791;52.752;8.346;2023-04-21T04:39:58;15.83;;;7.47;;
48975;SDS011;34791;52.752;8.346;2023-04-21T04:42:24;17.57;;;9.63;;
48975;SDS011;34791;52.752;8.346;2023-04-21T04:44:58;14.23;;;7.20;;
48975;SDS011;34791;52.752;8.346;2023-04-21T04:47:25;15.43;;;8.50;;
48975;SDS011;34791;52.752;8.346;2023-04-21T04:49:51;15.67;;;5.80;;
48975;SDS011;34791;52.752;8.346;2023-04-21T04:52:16;12.10;;;6.57;;
48975;SDS011;34791;52.752;8.346;2023-04-21T04:54:41;13.23;;;6.23;;
48975;SDS011;34791;52.752;8.346;2023-04-21T04:57:07;11.53;;;6.10;;
48975;SDS011;34791;52.752;8.346;2023-04-21T04:59:32;13.80;;;6.90;;
48975;SDS011;34791;52.752;8.346;2023-04-21T05:01:57;13.23;;;7.37;;
48975;SDS011;34791;52.752;8.346;2023-04-21T05:04:22;12.40;;;5.77;;
48975;SDS011;34791;52.752;8.346;2023-04-21T05:06:48;14.23;;;7.37;;
48975;SDS011;34791;52.752;8.346;2023-04-21T05:09:14;15.53;;;7.53;;
48975;SDS011;34791;52.752;8.346;2023-04-21T05:11:39;10.53;;;5.73;;
48975;SDS011;34791;52.752;8.346;2023-04-21T05:14:04;12.47;;;5.87;;
48975;SDS011;34791;52.752;8.346;2023-04-21T05:16:30;14.03;;;5.03;;
48975;SDS011;34791;52.752;8.346;2023-04-21T05:18:55;9.23;;;4.80;;
48975;SDS011;34791;52.752;8.346;2023-04-21T05:21:24;9.37;;;5.27;;
48975;SDS011;34791;52.752;8.346;2023-04-21T05:23:53;8.83;;;5.17;;
48975;SDS011;34791;52.752;8.346;2023-04-21T05:26:19;12.93;;;6.03;;
48975;SDS011;34791;52.752;8.346;2023-04-21T05:28:44;11.63;;;5.23;;
48975;SDS011;34791;52.752;8.346;2023-04-21T05:31:10;9.73;;;5.30;;
48975;SDS011;34791;52.752;8.346;2023-04-21T05:33:35;10.67;;;3.67;;
48975;SDS011;34791;52.752;8.346;2023-04-21T05:36:00;12.20;;;6.30;;
48975;SDS011;34791;52.752;8.346;2023-04-21T05:38:26;14.43;;;6.57;;
48975;SDS011;34791;52.752;8.346;2023-04-21T05:40:54;7.30;;;3.97;;
48975;SDS011;34791;52.752;8.346;2023-04-21T05:43:20;14.67;;;6.97;;
48975;SDS011;34791;52.752;8.346;2023-04-21T05:45:45;10.83;;;4.10;;
48975;SDS011;34791;52.752;8.346;2023-04-21T05:48:10;12.80;;;5.70;;
48975;SDS011;34791;52.752;8.346;2023-04-21T05:50:36;6.63;;;3.50;;
48975;SDS011;34791;52.752;8.346;2023-04-21T05:53:01;13.03;;;5.10;;
48975;SDS011;34791;52.752;8.346;2023-04-21T05:55:26;14.83;;;7.27;;
48975;SDS011;34791;52.752;8.346;2023-04-21T05:57:52;12.63;;;6.23;;
48975;SDS011;34791;52.752;8.346;2023-04-21T06:00:17;13.90;;;6.73;;
48975;SDS011;34791;52.752;8.346;2023-04-21T06:02:42;14.60;;;6.53;;
48975;SDS011;34791;52.752;8.346;2023-04-21T06:05:08;14.67;;;7.00;;
48975;SDS011;34791;52.752;8.346;2023-04-21T06:07:34;8.30;;;4.37;;
48975;SDS011;34791;52.752;8.346;2023-04-21T06:10:01;9.10;;;4.47;;
48975;SDS011;34791;52.752;8.346;2023-04-21T06:12:26;10.50;;;5.47;;
48975;SDS011;34791;52.752;8.346;2023-04-21T06:14:51;12.63;;;6.20;;
48975;SDS011;34791;52.752;8.346;2023-04-21T06:17:21;10.00;;;4.50;;
48975;SDS011;34791;52.752;8.346;2023-04-21T06:19:46;7.97;;;4.37;;
48975;SDS011;34791;52.752;8.346;2023-04-21T06:22:16;11.30;;;5.53;;
48975;SDS011;34791;52.752;8.346;2023-04-21T06:24:42;8.27;;;4.23;;
48975;SDS011;34791;52.752;8.346;2023-04-21T06:27:10;8.70;;;3.97;;
48975;SDS011;34791;52.752;8.346;2023-04-21T06:29:38;13.18;;;5.75;;
48975;SDS011;34791;52.752;8.346;2023-04-21T06:32:04;8.83;;;4.33;;
48975;SDS011;34791;52.752;8.346;2023-04-21T06:34:29;9.03;;;4.50;;
48975;SDS011;34791;52.752;8.346;2023-04-21T06:36:54;11.87;;;4.20;;
48975;SDS011;34791;52.752;8.346;2023-04-21T06:39:20;11.40;;;5.00;;
48975;SDS011;34791;52.752;8.346;2023-04-21T06:41:45;7.27;;;4.00;;
48975;SDS011;34791;52.752;8.346;2023-04-21T06:44:10;11.17;;;5.20;;
48975;SDS011;34791;52.752;8.346;2023-04-21T06:46:39;13.13;;;6.27;;
48975;SDS011;34791;52.752;8.346;2023-04-21T06:49:04;11.52;;;4.65;;
48975;SDS011;34791;52.752;8.346;2023-04-21T06:51:30;11.53;;;5.17;;
48975;SDS011;34791;52.752;8.346;2023-04-21T06:53:56;12.32;;;5.72;;
48975;SDS011;34791;52.752;8.346;2023-04-21T06:56:21;20.52;;;8.07;;
48975;SDS011;34791;52.752;8.346;2023-04-21T06:58:46;7.82;;;4.07;;
48975;SDS011;34791;52.752;8.346;2023-04-21T07:01:12;8.98;;;4.20;;
48975;SDS011;34791;52.752;8.346;2023-04-21T07:03:37;12.40;;;5.40;;
48975;SDS011;34791;52.752;8.346;2023-04-21T07:06:02;9.50;;;3.33;;
48975;SDS011;34791;52.752;8.346;2023-04-21T07:08:28;13.27;;;5.23;;
48975;SDS011;34791;52.752;8.346;2023-04-21T07:10:53;10.30;;;4.55;;
48975;SDS011;34791;52.752;8.346;2023-04-21T07:13:18;9.82;;;3.72;;
48975;SDS011;34791;52.752;8.346;2023-04-21T07:15:44;10.25;;;4.47;;
48975;SDS011;34791;52.752;8.346;2023-04-21T07:18:09;8.90;;;4.25;;
48975;SDS011;34791;52.752;8.346;2023-04-21T07:20:34;12.13;;;4.85;;
48975;SDS011;34791;52.752;8.346;2023-04-21T07:22:59;11.50;;;5.43;;
48975;SDS011;34791;52.752;8.346;2023-04-21T07:25:25;7.43;;;2.90;;
48975;SDS011;34791;52.752;8.346;2023-04-21T07:27:50;12.60;;;6.13;;
48975;SDS011;34791;52.752;8.346;2023-04-21T07:30:15;8.07;;;4.15;;
48975;SDS011;34791;52.752;8.346;2023-04-21T07:32:41;11.55;;;2.78;;
48975;SDS011;34791;52.752;8.346;2023-04-21T07:35:06;8.50;;;4.32;;
48975;SDS011;34791;52.752;8.346;2023-04-21T07:37:32;13.55;;;6.10;;
48975;SDS011;34791;52.752;8.346;2023-04-21T07:39:57;13.88;;;4.45;;
48975;SDS011;34791;52.752;8.346;2023-04-21T07:42:22;9.55;;;4.60;;
48975;SDS011;34791;52.752;8.346;2023-04-21T07:44:48;12.38;;;4.60;;
48975;SDS011;34791;52.752;8.346;2023-04-21T07:47:13;14.55;;;4.50;;
48975;SDS011;34791;52.752;8.346;2023-04-21T07:49:39;15.60;;;6.38;;
48975;SDS011;34791;52.752;8.346;2023-04-21T07:52:04;12.05;;;5.75;;
48975;SDS011;34791;52.752;8.346;2023-04-21T07:54:29;11.07;;;4.32;;
48975;SDS011;34791;52.752;8.346;2023-04-21T07:56:55;6.43;;;3.35;;
48975;SDS011;34791;52.752;8.346;2023-04-21T07:59:20;8.50;;;3.25;;
48975;SDS011;34791;52.752;8.346;2023-04-21T08:01:45;7.65;;;4.45;;
48975;SDS011;34791;52.752;8.346;2023-04-21T08:04:11;9.80;;;5.22;;
48975;SDS011;34791;52.752;8.346;2023-04-21T08:06:36;8.15;;;4.57;;
48975;SDS011;34791;52.752;8.346;2023-04-21T08:09:01;7.85;;;4.35;;
48975;SDS011;34791;52.752;8.346;2023-04-21T08:11:27;8.30;;;4.00;;
48975;SDS011;34791;52.752;8.346;2023-04-21T08:13:52;9.25;;;4.18;;
48975;SDS011;34791;52.752;8.346;2023-04-21T08:16:18;16.65;;;4.20;;
48975;SDS011;34791;52.752;8.346;2023-04-21T08:18:43;5.88;;;3.30;;
48975;SDS011;34791;52.752;8.346;2023-04-21T08:21:08;12.27;;;3.78;;
48975;SDS011;34791;52.752;8.346;2023-04-21T08:23:34;10.23;;;4.82;;
48975;SDS011;34791;52.752;8.346;2023-04-21T08:25:59;7.97;;;3.67;;
48975;SDS011;34791;52.752;8.346;2023-04-21T08:28:25;6.97;;;4.05;;
48975;SDS011;34791;52.752;8.346;2023-04-21T08:30:51;7.72;;;3.15;;
48975;SDS011;34791;52.752;8.346;2023-04-21T08:33:16;7.53;;;3.67;;
48975;SDS011;34791;52.752;8.346;2023-04-21T08:35:41;9.75;;;4.20;;
48975;SDS011;34791;52.752;8.346;2023-04-21T08:38:07;7.43;;;3.95;;
48975;SDS011;34791;52.752;8.346;2023-04-21T08:40:33;10.82;;;4.93;;
48975;SDS011;34791;52.752;8.346;2023-04-21T08:42:58;7.22;;;3.28;;
48975;SDS011;34791;52.752;8.346;2023-04-21T08:45:24;9.98;;;3.75;;
48975;SDS011;34791;52.752;8.346;2023-04-21T08:47:51;9.70;;;4.72;;
48975;SDS011;34791;52.752;8.346;2023-04-21T08:50:18;8.23;;;3.45;;
48975;SDS011;34791;52.752;8.346;2023-04-21T08:52:44;10.30;;;4.30;;
48975;SDS011;34791;52.752;8.346;2023-04-21T08:55:10;16.83;;;5.93;;
48975;SDS011;34791;52.752;8.346;2023-04-21T08:57:35;9.25;;;2.80;;
48975;SDS011;34791;52.752;8.346;2023-04-21T09:00:00;15.85;;;5.88;;
48975;SDS011;34791;52.752;8.346;2023-04-21T09:02:26;13.90;;;3.58;;
48975;SDS011;34791;52.752;8.346;2023-04-21T09:04:51;6.85;;;3.58;;
48975;SDS011;34791;52.752;8.346;2023-04-21T09:07:31;7.50;;;3.53;;
48975;SDS011;34791;52.752;8.346;2023-04-21T09:09:57;10.43;;;4.47;;
48975;SDS011;34791;52.752;8.346;2023-04-21T09:12:22;6.50;;;3.08;;
48975;SDS011;34791;52.752;8.346;2023-04-21T09:14:48;10.75;;;3.85;;
48975;SDS011;34791;52.752;8.346;2023-04-21T09:17:14;7.55;;;4.07;;
48975;SDS011;34791;52.752;8.346;2023-04-21T09:19:40;11.40;;;5.32;;
48975;SDS011;34791;52.752;8.346;2023-04-21T09:22:05;7.57;;;3.35;;
48975;SDS011;34791;52.752;8.346;2023-04-21T09:24:31;9.07;;;4.15;;
48975;SDS011;34791;52.752;8.346;2023-04-21T09:26:56;11.32;;;5.15;;
48975;SDS011;34791;52.752;8.346;2023-04-21T09:29:22;8.13;;;4.38;;
48975;SDS011;34791;52.752;8.346;2023-04-21T09:31:48;7.15;;;3.92;;
48975;SDS011;34791;52.752;8.346;2023-04-21T09:34:17;11.55;;;3.53;;
48975;SDS011;34791;52.752;8.346;2023-04-21T09:36:44;6.68;;;3.72;;
48975;SDS011;34791;52.752;8.346;2023-04-21T09:39:10;13.20;;;4.43;;
48975;SDS011;34791;52.752;8.346;2023-04-21T09:41:35;12.45;;;5.18;;
48975;SDS011;34791;52.752;8.346;2023-04-21T09:44:01;11.32;;;4.65;;
48975;SDS011;34791;52.752;8.346;2023-04-21T09:46:28;8.30;;;4.38;;
48975;SDS011;34791;52.752;8.346;2023-04-21T09:48:54;9.30;;;4.38;;
48975;SDS011;34791;52.752;8.346;2023-04-21T09:51:20;7.03;;;3.17;;
48975;SDS011;34791;52.752;8.346;2023-04-21T09:53:46;10.73;;;4.18;;
48975;SDS011;34791;52.752;8.346;2023-04-21T09:56:14;17.35;;;5.20;;
48975;SDS011;34791;52.752;8.346;2023-04-21T09:58:45;5.07;;;2.30;;
48975;SDS011;34791;52.752;8.346;2023-04-21T10:01:12;10.88;;;3.90;;
48975;SDS011;34791;52.752;8.346;2023-04-21T10:03:38;9.65;;;4.30;;
48975;SDS011;34791;52.752;8.346;2023-04-21T10:06:04;13.20;;;5.28;;
48975;SDS011;34791;52.752;8.346;2023-04-21T10:08:29;10.20;;;3.83;;
48975;SDS011;34791;52.752;8.346;2023-04-21T10:10:55;14.13;;;3.22;;
48975;SDS011;34791;52.752;8.346;2023-04-21T10:13:20;7.05;;;3.30;;
48975;SDS011;34791;52.752;8.346;2023-04-21T10:15:46;7.35;;;3.15;;
48975;SDS011;34791;52.752;8.346;2023-04-21T10:18:15;7.28;;;2.95;;
48975;SDS011;34791;52.752;8.346;2023-04-21T10:23:40;10.23;;;3.47;;
48975;SDS011;34791;52.752;8.346;2023-04-21T10:26:13;5.93;;;2.30;;
48975;SDS011;34791;52.752;8.346;2023-04-21T10:28:58;4.28;;;2.05;;
48975;SDS011;34791;52.752;8.346;2023-04-21T10:31:33;10.32;;;2.42;;
48975;SDS011;34791;52.752;8.346;2023-04-21T10:37:09;5.47;;;2.30;;
48975;SDS011;34791;52.752;8.346;2023-04-21T10:39:41;7.53;;;2.55;;
48975;SDS011;34791;52.752;8.346;2023-04-21T10:45:04;5.75;;;2.72;;
48975;SDS011;34791;52.752;8.346;2023-04-21T10:47:37;6.25;;;2.15;;
48975;SDS011;34791;52.752;8.346;2023-04-21T10:50:15;7.32;;;2.60;;
48975;SDS011;34791;52.752;8.346;2023-04-21T10:52:44;8.35;;;2.50;;
48975;SDS011;34791;52.752;8.346;2023-04-21T10:55:10;5.25;;;2.30;;
48975;SDS011;34791;52.752;8.346;2023-04-21T10:57:37;9.63;;;2.78;;
48975;SDS011;34791;52.752;8.346;2023-04-21T11:00:05;9.75;;;3.67;;
48975;SDS011;34791;52.752;8.346;2023-04-21T11:02:31;5.97;;;1.95;;
48975;SDS011;34791;52.752;8.346;2023-04-21T11:04:56;5.80;;;2.58;;
48975;SDS011;34791;52.752;8.346;2023-04-21T11:07:24;4.90;;;2.30;;
48975;SDS011;34791;52.752;8.346;2023-04-21T11:09:56;5.15;;;2.45;;
48975;SDS011;34791;52.752;8.346;2023-04-21T11:12:25;4.22;;;2.20;;
48975;SDS011;34791;52.752;8.346;2023-04-21T11:14:50;4.43;;;1.85;;
48975;SDS011;34791;52.752;8.346;2023-04-21T11:17:17;4.13;;;1.95;;
48975;SDS011;34791;52.752;8.346;2023-04-21T11:19:46;8.13;;;2.42;;
48975;SDS011;34791;52.752;8.346;2023-04-21T11:22:12;5.35;;;2.10;;
48975;SDS011;34791;52.752;8.346;2023-04-21T11:24:37;6.18;;;2.53;;
48975;SDS011;34791;52.752;8.346;2023-04-21T11:27:07;11.30;;;2.50;;
48975;SDS011;34791;52.752;8.346;2023-04-21T11:29:33;4.22;;;2.05;;
48975;SDS011;34791;52.752;8.346;2023-04-21T11:31:58;6.13;;;2.65;;
48975;SDS011;34791;52.752;8.346;2023-04-21T11:34:25;5.25;;;2.05;;
48975;SDS011;34791;52.752;8.346;2023-04-21T11:36:50;8.70;;;3.05;;
48975;SDS011;34791;52.752;8.346;2023-04-21T11:39:16;9.75;;;2.75;;
48975;SDS011;34791;52.752;8.346;2023-04-21T11:41:47;5.07;;;1.95;;
48975;SDS011;34791;52.752;8.346;2023-04-21T11:44:13;3.75;;;2.10;;
48975;SDS011;34791;52.752;8.346;2023-04-21T11:46:53;6.15;;;2.38;;
48975;SDS011;34791;52.752;8.346;2023-04-21T11:49:19;6.38;;;2.30;;
48975;SDS011;34791;52.752;8.346;2023-04-21T11:51:48;7.20;;;2.90;;
48975;SDS011;34791;52.752;8.346;2023-04-21T11:54:14;4.22;;;1.95;;
48975;SDS011;34791;52.752;8.346;2023-04-21T11:56:42;3.90;;;1.90;;
48975;SDS011;34791;52.752;8.346;2023-04-21T11:59:14;5.57;;;2.50;;
48975;SDS011;34791;52.752;8.346;2023-04-21T12:01:43;5.35;;;2.60;;
48975;SDS011;34791;52.752;8.346;2023-04-21T12:04:12;8.55;;;2.63;;
48975;SDS011;34791;52.752;8.346;2023-04-21T12:06:38;8.20;;;3.13;;
48975;SDS011;34791;52.752;8.346;2023-04-21T12:09:03;5.43;;;2.42;;
48975;SDS011;34791;52.752;8.346;2023-04-21T12:11:29;6.07;;;2.38;;
48975;SDS011;34791;52.752;8.346;2023-04-21T12:13:58;5.30;;;2.53;;
48975;SDS011;34791;52.752;8.346;2023-04-21T12:16:26;4.85;;;2.03;;
48975;SDS011;34791;52.752;8.346;2023-04-21T12:18:52;5.40;;;2.35;;
48975;SDS011;34791;52.752;8.346;2023-04-21T12:21:17;5.35;;;2.50;;
48975;SDS011;34791;52.752;8.346;2023-04-21T12:23:43;5.80;;;3.10;;
48975;SDS011;34791;52.752;8.346;2023-04-21T12:26:09;5.28;;;2.60;;
48975;SDS011;34791;52.752;8.346;2023-04-21T12:28:34;5.50;;;1.90;;
48975;SDS011;34791;52.752;8.346;2023-04-21T12:31:00;10.52;;;2.80;;
48975;SDS011;34791;52.752;8.346;2023-04-21T12:33:25;9.10;;;3.50;;
48975;SDS011;34791;52.752;8.346;2023-04-21T12:35:50;4.10;;;2.55;;
48975;SDS011;34791;52.752;8.346;2023-04-21T12:38:16;6.75;;;2.35;;
48975;SDS011;34791;52.752;8.346;2023-04-21T12:40:41;8.70;;;3.00;;
48975;SDS011;34791;52.752;8.346;2023-04-21T12:43:06;7.53;;;2.58;;
48975;SDS011;34791;52.752;8.346;2023-04-21T12:45:32;7.47;;;2.83;;
48975;SDS011;34791;52.752;8.346;2023-04-21T12:47:57;5.57;;;2.75;;
48975;SDS011;34791;52.752;8.346;2023-04-21T12:50:23;4.57;;;2.47;;
48975;SDS011;34791;52.752;8.346;2023-04-21T12:52:48;6.60;;;3.00;;
48975;SDS011;34791;52.752;8.346;2023-04-21T12:55:15;8.30;;;2.83;;
48975;SDS011;34791;52.752;8.346;2023-04-21T12:57:41;9.52;;;2.65;;
48975;SDS011;34791;52.752;8.346;2023-04-21T13:00:06;5.75;;;2.28;;
48975;SDS011;34791;52.752;8.346;2023-04-21T13:02:32;6.20;;;2.97;;
48975;SDS011;34791;52.752;8.346;2023-04-21T13:05:01;6.57;;;3.53;;
48975;SDS011;34791;52.752;8.346;2023-04-21T13:07:26;7.85;;;3.67;;
48975;SDS011;34791;52.752;8.346;2023-04-21T13:09:55;8.23;;;3.17;;
48975;SDS011;34791;52.752;8.346;2023-04-21T13:12:20;4.53;;;2.53;;
48975;SDS011;34791;52.752;8.346;2023-04-21T13:14:45;6.70;;;3.28;;
48975;SDS011;34791;52.752;8.346;2023-04-21T13:17:11;5.00;;;2.55;;
48975;SDS011;34791;52.752;8.346;2023-04-21T13:19:37;6.15;;;2.55;;
48975;SDS011;34791;52.752;8.346;2023-04-21T13:22:02;7.70;;;2.83;;
48975;SDS011;34791;52.752;8.346;2023-04-21T13:24:27;6.93;;;2.80;;
48975;SDS011;34791;52.752;8.346;2023-04-21T13:26:52;5.20;;;3.13;;
48975;SDS011;34791;52.752;8.346;2023-04-21T13:29:18;7.47;;;3.40;;
48975;SDS011;34791;52.752;8.346;2023-04-21T13:31:43;6.45;;;2.97;;
48975;SDS011;34791;52.752;8.346;2023-04-21T13:34:09;9.15;;;4.18;;
48975;SDS011;34791;52.752;8.346;2023-04-21T13:36:34;5.97;;;2.63;;
48975;SDS011;34791;52.752;8.346;2023-04-21T13:39:00;9.23;;;4.10;;
48975;SDS011;34791;52.752;8.346;2023-04-21T13:41:25;6.03;;;2.88;;
48975;SDS011;34791;52.752;8.346;2023-04-21T13:43:50;5.32;;;2.80;;
48975;SDS011;34791;52.752;8.346;2023-04-21T13:46:16;7.22;;;3.05;;
48975;SDS011;34791;52.752;8.346;2023-04-21T13:48:41;5.15;;;2.53;;
48975;SDS011;34791;52.752;8.346;2023-04-21T13:51:08;4.35;;;2.30;;
48975;SDS011;34791;52.752;8.346;2023-04-21T13:53:34;5.53;;;2.03;;
48975;SDS011;34791;52.752;8.346;2023-04-21T13:56:00;8.38;;;2.90;;
48975;SDS011;34791;52.752;8.346;2023-04-21T13:58:25;7.38;;;2.88;;
48975;SDS011;34791;52.752;8.346;2023-04-21T14:00:50;6.97;;;3.00;;
48975;SDS011;34791;52.752;8.346;2023-04-21T14:03:16;9.82;;;4.35;;
48975;SDS011;34791;52.752;8.346;2023-04-21T14:05:41;4.40;;;2.45;;
48975;SDS011;34791;52.752;8.346;2023-04-21T14:08:06;6.18;;;2.28;;
48975;SDS011;34791;52.752;8.346;2023-04-21T14:10:32;5.43;;;3.03;;
48975;SDS011;34791;52.752;8.346;2023-04-21T14:12:57;7.15;;;3.53;;
48975;SDS011;34791;52.752;8.346;2023-04-21T14:15:23;5.90;;;2.97;;
48975;SDS011;34791;52.752;8.346;2023-04-21T14:17:50;6.60;;;2.45;;
48975;SDS011;34791;52.752;8.346;2023-04-21T14:20:15;8.68;;;2.47;;
48975;SDS011;34791;52.752;8.346;2023-04-21T14:22:41;5.30;;;2.13;;
48975;SDS011;34791;52.752;8.346;2023-04-21T14:25:06;8.77;;;2.45;;
48975;SDS011;34791;52.752;8.346;2023-04-21T14:27:32;7.95;;;2.95;;
48975;SDS011;34791;52.752;8.346;2023-04-21T14:29:57;7.55;;;3.15;;
48975;SDS011;34791;52.752;8.346;2023-04-21T14:32:24;4.65;;;2.65;;
48975;SDS011;34791;52.752;8.346;2023-04-21T14:34:49;6.85;;;4.13;;
48975;SDS011;34791;52.752;8.346;2023-04-21T14:37:17;7.72;;;2.88;;
48975;SDS011;34791;52.752;8.346;2023-04-21T14:39:42;5.07;;;2.72;;
48975;SDS011;34791;52.752;8.346;2023-04-21T14:42:08;4.90;;;2.53;;